Share

Raven, VA

Ramey Flats (KVACLINT2) Elev 1795 ft | 37.21 °N, 82.44 °W | Change Station

Current weather conditions updated 12 minutes ago

Clear
Clear
53.4 °F
Feels Like 53.4 °F
N
1.0
Wind Variable Wind from ENE
Gusts 1.0 mph
Sunrise 6:47 AM
Sunset 8:08 PM
Moon Waning Gibbous

Today is forecast to be Warmer than yesterday.

Pressure 30.24 in
Visibility 10.0 miles
Clouds Clear
Dew Point 38 °F
Humidity 57%
Rainfall 0.00 in
Snow Depth Not available.
UV 0 out of 16
Pollen 6.80 out of 12
Air Quality Not available.
Flu Activity Regional
METAR KJFZ 200455Z AUTO 11006KT 10SM CLR 14/03 A3024 RMK AO2 T01360029

More Conditions Fewer Conditions

Pressure 30.24 in
Visibility 10.0 miles
Clouds Clear
Dew Point 38 °F
Humidity 57%
Rainfall 0.00 in
Snow Depth Not available.
UV 0 out of 16
Pollen 6.80 out of 12
Air Quality Not available.
Flu Activity Regional
METAR KJFZ 200455Z AUTO 11006KT 10SM CLR 14/03 A3024 RMK AO2 T01360029

More Conditions Fewer Conditions

10-Day Weather Forecast

Almanac

Astronomy

Apr. 20, 2014 Rise Set
Actual Time 6:47 AM EDT 8:08 PM EDT
Civil Twilight 6:19 AM EDT 8:35 PM EDT
Nautical Twilight 5:47 AM EDT 9:07 PM EDT
Astronomical Twilight 5:13 AM EDT 9:42 PM EDT
Moon 12:44 AM EDT 11:08 AM EDT
Length of Visible Light 14h 15m
Length of Day
13h 20m
Tomorrow will be 2m 12s longer.
Waning Gibbous, 73% of the Moon is Illuminated
Today
Waning Gibbous
Apr 22
Last Quarter
Apr 29
New
May 6
First Quarter
May 14
Full

Today's Extremes

State Highs State Lows

Community

  • Sunny day at the coast-Cape Arago Lighthouse
    Sunny day at the coast-Cape Arago Lighthouse
  • Cherry Blossoms
    Cherry Blossoms
  • White-Crowned Sparrow
    White-Crowned Sparrow
  • New Day
    New Day
  • Happy Easter!
    Happy Easter!

WunderPhotos

Upload Photos

1,703,088 photos uploaded!

WunderBlogs® & News

Nearby

Snow Depth

Station Depth Elevation
No new snow has been reported.

Coastal Water Temperatures

Place Temperature
No Stations Reporting

Earthquake Activity

City Distance Mag. Time & Date
No recent earthquake activity has been reported nearby.
Minimum magnitude displayed is 2.5.

Nearby Weather Stations

Station Location Temp. Dew Point Humidity Wind Precip. Elev Updated Type
Ramey Flats, Clintwood, VA 53.4 °F 38 °F 57% ENE  at  1.0 mph 0.00 in / hr 1795 ft 1:02 AM EDT Normal
KYMN Pikeville 13 S KY, Hellier, KY 54 °F 32 °F 44% East  at  9 mph 0.00 in / hr 2774 ft 12:45 AM EDT MADIS

Show More Stations Show Fewer Stations

What do you think?

We're not finished. Please let us know what you like, what you don't like, and what you are still missing.